createdAt,value
2019-05-16T00:00:03.493Z,52.11
2019-05-16T00:02:39.063Z,52.28
2019-05-16T00:05:14.256Z,51.55
2019-05-16T00:07:49.488Z,50.93
2019-05-16T00:10:24.845Z,52.01
2019-05-16T00:12:59.955Z,52.69
2019-05-16T00:15:34.939Z,52.05
2019-05-16T00:18:10.150Z,51.95
2019-05-16T00:20:46.021Z,52.68
2019-05-16T00:23:21.091Z,50.55
2019-05-16T00:25:58.430Z,51.33
2019-05-16T00:28:32.995Z,50.70
2019-05-16T00:31:08.695Z,49.62
2019-05-16T00:33:44.039Z,50.11
2019-05-16T00:36:19.159Z,49.72
2019-05-16T00:38:54.191Z,49.58
2019-05-16T00:41:29.393Z,50.21
2019-05-16T00:44:04.673Z,49.97
2019-05-16T00:46:39.654Z,50.15
2019-05-16T00:49:14.659Z,50.91
2019-05-16T00:51:49.752Z,51.00
2019-05-16T00:54:24.844Z,51.64
2019-05-16T00:57:00.825Z,51.77
2019-05-16T00:59:38.901Z,52.54
2019-05-16T01:02:14.007Z,53.10
2019-05-16T01:04:50.075Z,52.21
2019-05-16T01:07:25.063Z,51.68
2019-05-16T01:10:00.039Z,52.31
2019-05-16T01:12:35.014Z,50.98
2019-05-16T01:15:11.226Z,51.13
2019-05-16T01:17:48.377Z,49.70
2019-05-16T01:20:23.069Z,50.28
2019-05-16T01:22:58.246Z,48.70
2019-05-16T01:25:33.927Z,49.21
2019-05-16T01:28:09.002Z,50.25
2019-05-16T01:30:44.001Z,51.14
2019-05-16T01:33:19.486Z,51.01
2019-05-16T01:35:54.515Z,49.23
2019-05-16T01:38:29.536Z,50.03
2019-05-16T01:41:04.684Z,49.92
2019-05-16T01:43:39.666Z,50.38
2019-05-16T01:46:14.654Z,49.48
2019-05-16T01:48:49.689Z,49.10
2019-05-16T01:51:24.809Z,50.12
2019-05-16T01:53:59.828Z,50.85
2019-05-16T01:56:34.915Z,50.82
2019-05-16T01:59:09.941Z,50.29
2019-05-16T02:01:44.991Z,50.77
2019-05-16T02:04:20.008Z,50.23
2019-05-16T02:06:55.245Z,51.92
2019-05-16T02:09:31.035Z,49.44
2019-05-16T02:12:08.209Z,50.12
2019-05-16T02:14:42.938Z,49.42
2019-05-16T02:17:18.557Z,51.01
2019-05-16T02:19:53.813Z,50.38
2019-05-16T02:22:28.966Z,51.49
2019-05-16T02:25:03.989Z,51.12
2019-05-16T02:27:40.994Z,51.50
2019-05-16T02:30:15.817Z,49.83
2019-05-16T02:32:52.199Z,51.87
2019-05-16T02:35:30.962Z,51.21
2019-05-16T02:38:04.522Z,51.11
2019-05-16T02:40:41.789Z,50.93
2019-05-16T02:43:17.132Z,51.28
2019-05-16T02:45:52.380Z,50.52
2019-05-16T02:48:27.392Z,51.28
2019-05-16T02:51:02.392Z,51.40
2019-05-16T02:53:41.317Z,51.15
2019-05-16T02:56:14.794Z,51.79
2019-05-16T02:58:52.028Z,50.66
2019-05-16T03:01:26.636Z,51.02
2019-05-16T03:04:02.021Z,50.96
2019-05-16T03:06:41.135Z,50.72
2019-05-16T03:09:16.397Z,52.95
2019-05-16T03:11:53.081Z,51.51
2019-05-16T03:14:31.782Z,51.72
2019-05-16T03:17:11.228Z,52.09
2019-05-16T03:19:51.085Z,51.05
2019-05-16T03:22:31.594Z,52.81
2019-05-16T03:25:11.093Z,51.06
2019-05-16T03:27:47.156Z,52.08
2019-05-16T03:30:23.700Z,51.15
2019-05-16T03:33:04.964Z,51.51
2019-05-16T03:35:36.314Z,52.62
2019-05-16T03:38:12.222Z,51.57
2019-05-16T03:40:50.879Z,52.83
2019-05-16T03:43:25.754Z,51.23
2019-05-16T03:46:02.447Z,52.05
2019-05-16T03:48:40.652Z,51.63
2019-05-16T03:51:14.413Z,53.21
2019-05-16T03:53:50.758Z,51.17
2019-05-16T03:56:26.042Z,52.75
2019-05-16T03:59:02.020Z,50.42
2019-05-16T04:01:36.997Z,50.82
2019-05-16T04:04:13.475Z,51.55
2019-05-16T04:06:50.720Z,50.15
2019-05-16T04:09:25.147Z,50.43
2019-05-16T04:12:01.822Z,49.07
2019-05-16T04:14:40.895Z,50.57
2019-05-16T04:17:15.078Z,49.69
2019-05-16T04:19:51.019Z,50.63
2019-05-16T04:22:26.145Z,50.62
2019-05-16T04:25:02.167Z,49.48
2019-05-16T04:27:41.231Z,50.38
2019-05-16T04:30:14.998Z,49.75
2019-05-16T04:32:51.208Z,51.24
2019-05-16T04:35:27.011Z,49.43
2019-05-16T04:38:02.334Z,51.12
2019-05-16T04:40:38.538Z,49.85
2019-05-16T04:43:15.387Z,50.94
2019-05-16T04:45:52.133Z,50.43
2019-05-16T04:48:27.133Z,50.19
2019-05-16T04:51:02.210Z,51.30
2019-05-16T04:53:37.209Z,50.12
2019-05-16T04:56:12.271Z,50.23
2019-05-16T04:58:47.246Z,49.65
2019-05-16T05:01:22.243Z,50.55
2019-05-16T05:04:06.175Z,50.89
2019-05-16T05:06:34.678Z,51.04
2019-05-16T05:09:11.786Z,50.08
2019-05-16T05:11:46.494Z,50.71
2019-05-16T05:14:21.852Z,49.34
2019-05-16T05:16:57.597Z,49.55
2019-05-16T05:19:32.939Z,50.24
2019-05-16T05:22:12.972Z,49.75
2019-05-16T05:24:50.586Z,50.43
2019-05-16T05:27:25.604Z,50.77
2019-05-16T05:30:01.005Z,48.72
2019-05-16T05:32:36.260Z,49.62
2019-05-16T05:35:11.828Z,50.12
2019-05-16T05:37:46.867Z,50.48
2019-05-16T05:40:22.450Z,49.58
2019-05-16T05:42:59.740Z,49.99
2019-05-16T05:45:36.056Z,49.79
2019-05-16T05:48:11.040Z,49.75
2019-05-16T05:50:46.094Z,48.44
2019-05-16T05:53:21.358Z,48.95
2019-05-16T05:55:56.445Z,49.39
2019-05-16T05:58:31.431Z,48.97
2019-05-16T06:01:06.500Z,48.24
2019-05-16T06:03:41.600Z,47.50
2019-05-16T06:06:16.606Z,48.13
2019-05-16T06:08:51.638Z,48.59
2019-05-16T06:11:26.726Z,48.54
2019-05-16T06:14:01.894Z,47.75
2019-05-16T06:16:37.021Z,48.13
2019-05-16T06:19:12.308Z,48.02
2019-05-16T06:21:47.444Z,47.76
2019-05-16T06:24:22.464Z,48.56
2019-05-16T06:26:57.577Z,47.65
2019-05-16T06:29:32.790Z,48.74
2019-05-16T06:32:10.168Z,48.69
2019-05-16T06:34:44.803Z,46.74
2019-05-16T06:37:20.520Z,47.60
2019-05-16T06:39:55.858Z,45.19
2019-05-16T06:42:30.871Z,45.25
2019-05-16T06:45:06.857Z,45.68
2019-05-16T06:47:41.927Z,43.69
2019-05-16T06:50:16.964Z,43.95
2019-05-16T06:52:52.046Z,43.80
2019-05-16T06:55:29.528Z,44.12
2019-05-16T06:58:06.191Z,44.01
2019-05-16T07:00:41.208Z,45.84
2019-05-16T07:03:17.272Z,43.21
2019-05-16T07:05:52.342Z,44.60
2019-05-16T07:08:27.652Z,43.95
2019-05-16T07:11:02.953Z,43.53
2019-05-16T07:13:40.485Z,42.34
2019-05-16T07:16:15.444Z,43.17
2019-05-16T07:18:50.813Z,44.49
2019-05-16T07:21:26.090Z,43.77
2019-05-16T07:24:01.201Z,43.69
2019-05-16T07:26:36.225Z,42.96
2019-05-16T07:29:11.250Z,43.70
2019-05-16T07:31:46.397Z,43.52
2019-05-16T07:34:21.491Z,43.38
2019-05-16T07:36:56.472Z,43.00
2019-05-16T07:39:31.471Z,42.17
2019-05-16T07:42:06.569Z,42.62
2019-05-16T07:44:41.566Z,42.96
2019-05-16T07:47:16.641Z,42.32
2019-05-16T07:49:53.989Z,42.35
2019-05-16T07:52:35.242Z,41.66
2019-05-16T07:55:05.933Z,43.90
2019-05-16T07:57:41.108Z,42.00
2019-05-16T08:00:16.242Z,43.37
2019-05-16T08:02:53.095Z,41.51
2019-05-16T08:05:30.422Z,41.00
2019-05-16T08:08:06.266Z,40.29
2019-05-16T08:10:46.543Z,40.36
2019-05-16T08:13:20.772Z,40.94
2019-05-16T08:15:55.365Z,38.99
2019-05-16T08:18:31.131Z,40.46
2019-05-16T08:21:06.262Z,41.31
2019-05-16T08:23:41.760Z,40.63
2019-05-16T08:26:16.803Z,42.11
2019-05-16T08:28:51.987Z,40.43
2019-05-16T08:31:26.999Z,40.16
2019-05-16T08:34:02.328Z,40.53
2019-05-16T08:36:37.413Z,39.13
2019-05-16T08:39:12.695Z,40.47
2019-05-16T08:41:51.608Z,41.78
2019-05-16T08:44:24.592Z,41.89
2019-05-16T08:47:06.308Z,42.20
2019-05-16T08:49:36.927Z,40.79
2019-05-16T08:52:11.947Z,41.54
2019-05-16T08:54:47.248Z,42.00
2019-05-16T08:57:28.206Z,41.02
2019-05-16T09:00:02.928Z,41.25
2019-05-16T09:02:42.049Z,40.71
2019-05-16T09:05:15.014Z,39.99
2019-05-16T09:07:50.863Z,41.18
2019-05-16T09:13:03.417Z,40.58
2019-05-16T09:15:39.071Z,40.57
2019-05-16T09:18:17.569Z,40.99
2019-05-16T09:20:51.805Z,41.71
2019-05-16T09:23:26.940Z,42.47
2019-05-16T09:26:07.329Z,43.07
2019-05-16T09:28:41.476Z,43.62
2019-05-16T09:31:17.888Z,42.90
2019-05-16T09:33:53.515Z,44.02
2019-05-16T09:36:28.726Z,44.27
2019-05-16T09:39:08.118Z,44.24
2019-05-16T09:41:50.624Z,45.46
2019-05-16T09:44:18.713Z,44.12
2019-05-16T09:46:53.758Z,45.74
2019-05-16T09:49:29.349Z,44.98
2019-05-16T09:52:07.301Z,44.49
2019-05-16T09:54:42.008Z,44.37
2019-05-16T09:57:17.633Z,43.74
2019-05-16T09:59:52.767Z,43.60
2019-05-16T10:02:28.024Z,42.79
2019-05-16T10:05:03.555Z,44.05
2019-05-16T10:07:39.798Z,44.12
2019-05-16T10:10:17.044Z,43.58
2019-05-16T10:12:53.535Z,44.10
2019-05-16T10:15:28.683Z,43.73
2019-05-16T10:18:03.800Z,43.25
2019-05-16T10:20:38.805Z,41.74
2019-05-16T10:23:15.182Z,41.77
2019-05-16T10:25:50.665Z,43.48
2019-05-16T10:28:27.540Z,44.06
2019-05-16T10:31:03.321Z,44.56
2019-05-16T10:33:39.627Z,44.93
2019-05-16T10:36:17.365Z,44.04
2019-05-16T10:38:51.624Z,43.23
2019-05-16T10:41:26.817Z,42.86
2019-05-16T10:44:01.926Z,43.65
2019-05-16T10:46:37.667Z,45.67
2019-05-16T10:49:12.908Z,47.13
2019-05-16T10:51:48.051Z,49.04
2019-05-16T10:54:23.469Z,47.82
2019-05-16T10:56:58.774Z,48.84
2019-05-16T11:02:10.914Z,50.25
2019-05-16T11:04:57.414Z,50.23
2019-05-16T11:07:22.891Z,49.19
2019-05-16T11:10:03.201Z,49.39
2019-05-16T11:12:47.693Z,49.70
2019-05-16T11:15:13.446Z,49.13
2019-05-16T11:17:48.663Z,49.08
2019-05-16T11:20:26.792Z,50.11
2019-05-16T11:23:01.990Z,50.20
2019-05-16T11:25:37.073Z,49.19
2019-05-16T11:28:13.167Z,50.39
2019-05-16T11:30:49.872Z,50.99
2019-05-16T11:33:27.905Z,52.37
2019-05-16T11:36:01.998Z,52.25
2019-05-16T11:38:37.853Z,51.48
2019-05-16T11:41:13.187Z,51.15
2019-05-16T11:43:50.089Z,51.08
2019-05-16T11:46:27.874Z,52.09
2019-05-16T11:49:02.853Z,52.45
2019-05-16T11:51:38.356Z,52.13
2019-05-16T11:54:13.725Z,51.93
2019-05-16T11:56:49.831Z,51.94
2019-05-16T11:59:25.357Z,50.86
2019-05-16T12:02:00.563Z,48.92
2019-05-16T12:04:37.511Z,48.78
2019-05-16T12:07:12.468Z,46.67
2019-05-16T12:09:54.609Z,47.84
2019-05-16T12:12:24.304Z,50.04
2019-05-16T12:14:59.421Z,50.24
2019-05-16T12:17:34.808Z,54.37
2019-05-16T12:20:10.355Z,54.21
2019-05-16T12:22:45.545Z,53.99
2019-05-16T12:25:20.831Z,57.65
2019-05-16T12:27:58.707Z,60.52
2019-05-16T12:30:33.712Z,61.31
2019-05-16T12:33:08.820Z,62.31
2019-05-16T12:35:43.855Z,61.14
2019-05-16T12:38:18.906Z,61.44
2019-05-16T12:40:56.420Z,63.50
2019-05-16T12:43:44.941Z,65.42
2019-05-16T12:46:08.148Z,65.47
2019-05-16T12:48:43.222Z,65.69
2019-05-16T12:51:18.321Z,67.62
2019-05-16T12:53:53.360Z,68.08
2019-05-16T12:56:29.173Z,67.30
2019-05-16T12:59:04.131Z,69.41
2019-05-16T13:01:39.145Z,70.62
2019-05-16T13:04:18.547Z,72.28
2019-05-16T13:06:51.531Z,71.57
2019-05-16T13:09:26.691Z,71.75
2019-05-16T13:12:01.836Z,73.15
2019-05-16T13:14:40.123Z,73.06
2019-05-16T13:17:16.529Z,72.12
2019-05-16T13:19:50.619Z,71.40
2019-05-16T13:22:27.558Z,70.48
2019-05-16T13:25:02.861Z,70.91
2019-05-16T13:27:37.853Z,72.30
2019-05-16T13:30:17.524Z,70.45
2019-05-16T13:32:52.858Z,70.05
2019-05-16T13:35:27.959Z,70.24
2019-05-16T13:38:03.685Z,70.78
2019-05-16T13:40:38.922Z,69.20
2019-05-16T13:43:14.030Z,69.87
2019-05-16T13:45:49.132Z,70.40
2019-05-16T13:48:27.144Z,70.44
2019-05-16T13:51:11.823Z,72.22
2019-05-16T13:53:39.314Z,73.46
2019-05-16T13:56:17.667Z,74.84
2019-05-16T13:58:52.997Z,75.52
2019-05-16T14:01:28.045Z,76.15
2019-05-16T14:04:03.307Z,76.82
2019-05-16T14:06:41.529Z,77.27
2019-05-16T14:09:16.053Z,77.42
2019-05-16T14:11:51.053Z,77.66
2019-05-16T14:14:37.412Z,78.50
2019-05-16T14:17:02.961Z,77.77
2019-05-16T14:19:38.137Z,77.78
2019-05-16T14:22:13.302Z,77.10
2019-05-16T14:24:48.507Z,77.67
2019-05-16T14:27:23.502Z,78.15
2019-05-16T14:29:58.475Z,78.06
2019-05-16T14:32:39.286Z,78.03
2019-05-16T14:35:11.152Z,77.54
2019-05-16T14:37:46.978Z,76.69
2019-05-16T14:40:22.135Z,76.50
2019-05-16T14:42:59.051Z,74.96
2019-05-16T14:45:34.149Z,75.42
2019-05-16T14:48:09.128Z,75.28
2019-05-16T14:50:46.705Z,74.06
2019-05-16T14:53:20.884Z,75.47
2019-05-16T14:55:58.773Z,75.97
2019-05-16T14:58:37.470Z,77.38
2019-05-16T15:01:10.906Z,75.30
2019-05-16T15:03:47.350Z,75.82
2019-05-16T15:06:22.510Z,75.66
2019-05-16T15:08:57.685Z,75.87
2019-05-16T15:11:33.291Z,75.94
2019-05-16T15:14:09.470Z,75.68
2019-05-16T15:16:47.437Z,75.48
2019-05-16T15:19:21.357Z,76.70
2019-05-16T15:21:57.114Z,74.03
2019-05-16T15:24:32.571Z,74.41
2019-05-16T15:27:08.503Z,75.63
2019-05-16T15:29:43.836Z,76.58
2019-05-16T15:32:18.983Z,76.33
2019-05-16T15:34:57.016Z,75.20
2019-05-16T15:37:31.270Z,75.66
2019-05-16T15:40:07.299Z,75.56
2019-05-16T15:42:42.621Z,74.23
2019-05-16T15:45:34.647Z,74.99
2019-05-16T15:47:59.887Z,74.30
2019-05-16T15:50:37.112Z,73.23
2019-05-16T15:53:11.127Z,72.20
2019-05-16T15:55:47.212Z,71.48
2019-05-16T15:58:22.346Z,70.33
2019-05-16T16:00:58.086Z,68.66
2019-05-16T16:03:33.956Z,68.61
2019-05-16T16:06:09.093Z,70.05
2019-05-16T16:08:46.695Z,68.35
2019-05-16T16:11:21.129Z,68.62
2019-05-16T16:13:57.646Z,68.40
2019-05-16T16:16:33.071Z,69.46
2019-05-16T16:19:08.295Z,69.57
2019-05-16T16:21:47.071Z,69.83
2019-05-16T16:24:21.046Z,70.57
2019-05-16T16:26:56.613Z,71.47
2019-05-16T16:29:33.300Z,70.94
2019-05-16T16:32:09.283Z,70.42
2019-05-16T16:34:45.175Z,69.97
2019-05-16T16:37:20.328Z,70.10
2019-05-16T16:39:57.632Z,69.77
2019-05-16T16:42:32.442Z,71.02
2019-05-16T16:45:08.827Z,71.78
2019-05-16T16:47:46.685Z,72.08
2019-05-16T16:50:21.165Z,70.69
2019-05-16T16:52:56.680Z,72.14
2019-05-16T16:55:32.108Z,72.03
2019-05-16T16:58:09.681Z,72.69
2019-05-16T17:00:47.482Z,72.81
2019-05-16T17:03:21.996Z,73.86
2019-05-16T17:05:57.210Z,73.58
2019-05-16T17:08:32.438Z,74.96
2019-05-16T17:11:07.929Z,75.57
2019-05-16T17:13:42.982Z,75.82
2019-05-16T17:16:25.789Z,75.25
2019-05-16T17:18:56.827Z,75.77
2019-05-16T17:21:31.863Z,75.23
2019-05-16T17:24:06.970Z,73.85
2019-05-16T17:26:43.978Z,74.90
2019-05-16T17:29:19.141Z,73.66
2019-05-16T17:32:04.795Z,73.46
2019-05-16T17:34:31.147Z,72.03
2019-05-16T17:37:09.443Z,70.07
2019-05-16T17:39:43.223Z,70.77
2019-05-16T17:42:18.482Z,70.58
2019-05-16T17:44:56.597Z,71.47
2019-05-16T17:47:31.940Z,71.58
2019-05-16T17:50:09.415Z,69.79
2019-05-16T17:52:44.503Z,71.31
2019-05-16T17:55:21.251Z,70.68
2019-05-16T17:57:57.033Z,70.78
2019-05-16T18:00:32.995Z,71.22
2019-05-16T18:03:08.066Z,71.96
2019-05-16T18:05:43.140Z,72.86
2019-05-16T18:08:18.315Z,72.26
2019-05-16T18:10:56.372Z,73.01
2019-05-16T18:13:31.064Z,73.29
2019-05-16T18:16:07.561Z,73.67
2019-05-16T18:18:46.920Z,74.28
2019-05-16T18:21:25.146Z,75.43
2019-05-16T18:24:00.361Z,75.79
2019-05-16T18:26:37.399Z,75.97
2019-05-16T18:29:12.732Z,75.35
2019-05-16T18:31:48.238Z,76.13
2019-05-16T18:34:23.506Z,76.12
2019-05-16T18:36:59.011Z,75.61
2019-05-16T18:39:36.631Z,75.22
2019-05-16T18:42:11.358Z,75.33
2019-05-16T18:44:47.173Z,75.58
2019-05-16T18:47:23.107Z,75.33
2019-05-16T18:49:58.676Z,76.11
2019-05-16T18:52:34.047Z,76.24
2019-05-16T18:55:09.508Z,76.19
2019-05-16T18:57:47.038Z,76.36
2019-05-16T19:00:23.766Z,76.24
2019-05-16T19:02:59.693Z,76.37
2019-05-16T19:05:37.437Z,76.29
2019-05-16T19:08:16.329Z,76.12
2019-05-16T19:10:51.893Z,76.46
2019-05-16T19:13:27.748Z,76.82
2019-05-16T19:16:03.263Z,76.64
2019-05-16T19:18:38.662Z,76.64
2019-05-16T19:21:14.025Z,76.43
2019-05-16T19:23:49.402Z,76.48
2019-05-16T19:26:24.570Z,76.02
2019-05-16T19:28:59.993Z,76.31
2019-05-16T19:31:38.899Z,77.02
2019-05-16T19:34:16.293Z,77.22
2019-05-16T19:36:52.531Z,76.85
2019-05-16T19:39:28.775Z,77.01
2019-05-16T19:42:06.496Z,77.74
2019-05-16T19:44:41.381Z,78.31
2019-05-16T19:47:16.723Z,78.17
2019-05-16T19:49:51.910Z,78.23
2019-05-16T19:52:27.313Z,78.10
2019-05-16T19:55:02.564Z,77.79
2019-05-16T19:57:37.920Z,78.32
2019-05-16T20:00:13.875Z,78.25
2019-05-16T20:02:49.156Z,78.01
2019-05-16T20:05:26.520Z,78.48
2019-05-16T20:08:01.186Z,78.71
2019-05-16T20:10:36.813Z,78.82
2019-05-16T20:13:14.040Z,78.89
2019-05-16T20:15:49.228Z,78.32
2019-05-16T20:18:27.158Z,78.76
2019-05-16T20:21:01.881Z,78.49
2019-05-16T20:23:37.135Z,78.64
2019-05-16T20:26:12.365Z,78.60
2019-05-16T20:28:47.595Z,78.38
2019-05-16T20:31:22.610Z,78.67
2019-05-16T20:33:57.713Z,78.49
2019-05-16T20:36:33.122Z,78.68
2019-05-16T20:39:09.067Z,78.72
2019-05-16T20:41:44.054Z,78.39
2019-05-16T20:44:19.035Z,78.62
2019-05-16T20:46:56.592Z,78.87
2019-05-16T20:49:30.708Z,79.22
2019-05-16T20:52:07.049Z,79.21
2019-05-16T20:54:42.606Z,79.71
2019-05-16T20:57:17.704Z,79.91
2019-05-16T20:59:52.795Z,80.45
2019-05-16T21:02:27.887Z,80.72
2019-05-16T21:05:03.281Z,81.25
2019-05-16T21:07:38.262Z,81.07
2019-05-16T21:10:16.696Z,81.21
2019-05-16T21:12:51.887Z,81.14
2019-05-16T21:15:26.911Z,81.14
2019-05-16T21:18:02.538Z,81.23
2019-05-16T21:20:38.908Z,81.46
2019-05-16T21:23:16.662Z,81.59
2019-05-16T21:25:50.957Z,81.93
2019-05-16T21:28:26.388Z,81.92
2019-05-16T21:31:01.405Z,82.15
2019-05-16T21:33:36.688Z,82.22
2019-05-16T21:36:11.764Z,82.50
2019-05-16T21:38:47.381Z,82.90
2019-05-16T21:41:22.471Z,82.90
2019-05-16T21:43:57.519Z,82.82
2019-05-16T21:46:32.539Z,82.56
2019-05-16T21:49:07.625Z,82.76
2019-05-16T21:51:42.615Z,82.81
2019-05-16T21:54:17.675Z,82.51
2019-05-16T21:56:52.755Z,83.00
2019-05-16T21:59:28.889Z,82.85
2019-05-16T22:02:04.990Z,82.86
2019-05-16T22:04:40.059Z,82.97
2019-05-16T22:07:16.688Z,82.77
2019-05-16T22:09:52.197Z,82.48
2019-05-16T22:12:27.584Z,82.42
2019-05-16T22:15:03.143Z,82.82
2019-05-16T22:17:39.915Z,82.39
2019-05-16T22:20:16.595Z,82.54
2019-05-16T22:22:52.120Z,82.41
2019-05-16T22:25:27.379Z,82.41
2019-05-16T22:28:02.398Z,82.60
2019-05-16T22:30:37.459Z,82.59
2019-05-16T22:33:13.630Z,83.01
2019-05-16T22:35:49.616Z,83.21
2019-05-16T22:38:26.297Z,83.35
2019-05-16T22:41:01.461Z,83.18
2019-05-16T22:43:37.121Z,83.36
2019-05-16T22:46:12.721Z,83.30
2019-05-16T22:48:47.806Z,83.20
2019-05-16T22:51:22.810Z,83.19
2019-05-16T22:53:58.767Z,83.10
2019-05-16T22:56:34.071Z,82.75
2019-05-16T22:59:09.053Z,82.83
2019-05-16T23:01:46.790Z,83.06
2019-05-16T23:04:21.791Z,82.62
2019-05-16T23:06:56.815Z,82.86
2019-05-16T23:09:32.121Z,82.48
2019-05-16T23:12:07.359Z,82.22
2019-05-16T23:14:42.383Z,82.45
2019-05-16T23:17:17.588Z,82.72
2019-05-16T23:19:52.609Z,82.69
2019-05-16T23:22:27.659Z,82.24
2019-05-16T23:25:02.861Z,82.31
2019-05-16T23:27:37.991Z,81.99
2019-05-16T23:30:13.367Z,82.37
2019-05-16T23:32:49.125Z,82.39
2019-05-16T23:35:26.706Z,82.00
2019-05-16T23:38:01.084Z,82.19
2019-05-16T23:40:37.344Z,81.70
2019-05-16T23:43:12.740Z,81.56
2019-05-16T23:45:47.943Z,82.08
2019-05-16T23:48:22.925Z,82.28
2019-05-16T23:50:58.687Z,81.69
2019-05-16T23:53:36.927Z,82.32
2019-05-16T23:56:11.280Z,82.49
2019-05-16T23:58:47.711Z,82.38
